sensor_id;sensor_type;location;lat;lon;timestamp;P1;durP1;ratioP1;P2;durP2;ratioP2
22336;SDS011;14992;50.844;4.418;2023-04-01T00:01:46;6.22;;;2.38;;
22336;SDS011;14992;50.844;4.418;2023-04-01T00:04:15;4.30;;;2.03;;
22336;SDS011;14992;50.844;4.418;2023-04-01T00:06:45;10.45;;;4.22;;
22336;SDS011;14992;50.844;4.418;2023-04-01T00:09:15;6.75;;;1.40;;
22336;SDS011;14992;50.844;4.418;2023-04-01T00:11:43;10.35;;;4.50;;
22336;SDS011;14992;50.844;4.418;2023-04-01T00:14:13;12.07;;;5.88;;
22336;SDS011;14992;50.844;4.418;2023-04-01T00:16:43;6.57;;;2.35;;
22336;SDS011;14992;50.844;4.418;2023-04-01T00:19:13;6.60;;;1.48;;
22336;SDS011;14992;50.844;4.418;2023-04-01T00:21:42;7.80;;;1.85;;
22336;SDS011;14992;50.844;4.418;2023-04-01T00:24:12;7.25;;;2.72;;
22336;SDS011;14992;50.844;4.418;2023-04-01T00:26:41;3.75;;;1.73;;
22336;SDS011;14992;50.844;4.418;2023-04-01T00:29:11;5.13;;;1.92;;
22336;SDS011;14992;50.844;4.418;2023-04-01T00:31:40;3.17;;;1.45;;
22336;SDS011;14992;50.844;4.418;2023-04-01T00:34:10;5.18;;;1.77;;
22336;SDS011;14992;50.844;4.418;2023-04-01T00:36:40;6.18;;;1.58;;
22336;SDS011;14992;50.844;4.418;2023-04-01T00:39:08;5.65;;;1.85;;
22336;SDS011;14992;50.844;4.418;2023-04-01T00:41:37;5.07;;;1.52;;
22336;SDS011;14992;50.844;4.418;2023-04-01T00:44:17;5.25;;;1.70;;
22336;SDS011;14992;50.844;4.418;2023-04-01T00:46:48;5.40;;;1.95;;
22336;SDS011;14992;50.844;4.418;2023-04-01T00:49:22;3.03;;;1.35;;
22336;SDS011;14992;50.844;4.418;2023-04-01T00:51:55;2.72;;;1.23;;
22336;SDS011;14992;50.844;4.418;2023-04-01T00:54:27;2.17;;;1.30;;
22336;SDS011;14992;50.844;4.418;2023-04-01T00:56:58;3.97;;;1.65;;
22336;SDS011;14992;50.844;4.418;2023-04-01T00:59:30;8.00;;;1.60;;
22336;SDS011;14992;50.844;4.418;2023-04-01T01:02:01;2.88;;;1.33;;
22336;SDS011;14992;50.844;4.418;2023-04-01T01:04:34;4.00;;;1.33;;
22336;SDS011;14992;50.844;4.418;2023-04-01T01:07:07;2.08;;;1.20;;
22336;SDS011;14992;50.844;4.418;2023-04-01T01:09:48;3.38;;;1.05;;
22336;SDS011;14992;50.844;4.418;2023-04-01T01:12:24;2.97;;;1.50;;
22336;SDS011;14992;50.844;4.418;2023-04-01T01:15:00;2.42;;;1.52;;
22336;SDS011;14992;50.844;4.418;2023-04-01T01:17:38;2.75;;;0.98;;
22336;SDS011;14992;50.844;4.418;2023-04-01T01:20:27;7.15;;;2.97;;
22336;SDS011;14992;50.844;4.418;2023-04-01T01:26:21;4.07;;;0.95;;
22336;SDS011;14992;50.844;4.418;2023-04-01T01:29:15;3.45;;;1.55;;
22336;SDS011;14992;50.844;4.418;2023-04-01T01:32:14;1.58;;;1.08;;
22336;SDS011;14992;50.844;4.418;2023-04-01T01:34:51;1.77;;;1.33;;
22336;SDS011;14992;50.844;4.418;2023-04-01T01:37:32;1.17;;;0.88;;
22336;SDS011;14992;50.844;4.418;2023-04-01T01:40:03;3.47;;;1.23;;
22336;SDS011;14992;50.844;4.418;2023-04-01T01:42:36;4.10;;;1.50;;
22336;SDS011;14992;50.844;4.418;2023-04-01T01:45:07;4.20;;;1.50;;
22336;SDS011;14992;50.844;4.418;2023-04-01T01:47:38;3.95;;;1.90;;
22336;SDS011;14992;50.844;4.418;2023-04-01T01:50:10;3.20;;;1.65;;
22336;SDS011;14992;50.844;4.418;2023-04-01T01:52:40;2.65;;;1.58;;
22336;SDS011;14992;50.844;4.418;2023-04-01T01:55:23;4.85;;;1.92;;
22336;SDS011;14992;50.844;4.418;2023-04-01T01:57:57;5.60;;;1.90;;
22336;SDS011;14992;50.844;4.418;2023-04-01T02:00:30;5.93;;;2.33;;
22336;SDS011;14992;50.844;4.418;2023-04-01T02:02:59;7.28;;;2.45;;
22336;SDS011;14992;50.844;4.418;2023-04-01T02:05:30;4.20;;;2.65;;
22336;SDS011;14992;50.844;4.418;2023-04-01T02:08:07;5.45;;;2.65;;
22336;SDS011;14992;50.844;4.418;2023-04-01T02:10:41;5.75;;;2.50;;
22336;SDS011;14992;50.844;4.418;2023-04-01T02:13:15;7.22;;;2.58;;
22336;SDS011;14992;50.844;4.418;2023-04-01T02:15:50;8.48;;;2.63;;
22336;SDS011;14992;50.844;4.418;2023-04-01T02:18:27;10.68;;;3.28;;
22336;SDS011;14992;50.844;4.418;2023-04-01T02:20:59;8.20;;;3.97;;
22336;SDS011;14992;50.844;4.418;2023-04-01T02:23:31;8.10;;;3.05;;
22336;SDS011;14992;50.844;4.418;2023-04-01T02:26:02;7.20;;;2.97;;
22336;SDS011;14992;50.844;4.418;2023-04-01T02:28:34;4.90;;;2.33;;
22336;SDS011;14992;50.844;4.418;2023-04-01T02:31:07;5.43;;;2.35;;
22336;SDS011;14992;50.844;4.418;2023-04-01T02:33:38;6.75;;;2.67;;
22336;SDS011;14992;50.844;4.418;2023-04-01T02:36:11;7.30;;;2.38;;
22336;SDS011;14992;50.844;4.418;2023-04-01T02:38:41;5.57;;;2.60;;
22336;SDS011;14992;50.844;4.418;2023-04-01T02:41:12;7.93;;;2.50;;
22336;SDS011;14992;50.844;4.418;2023-04-01T02:43:41;3.65;;;2.50;;
22336;SDS011;14992;50.844;4.418;2023-04-01T02:46:10;8.15;;;3.10;;
22336;SDS011;14992;50.844;4.418;2023-04-01T02:48:39;8.57;;;2.63;;
22336;SDS011;14992;50.844;4.418;2023-04-01T02:51:08;7.53;;;2.38;;
22336;SDS011;14992;50.844;4.418;2023-04-01T02:53:38;6.28;;;2.38;;
22336;SDS011;14992;50.844;4.418;2023-04-01T02:56:07;5.70;;;2.67;;
22336;SDS011;14992;50.844;4.418;2023-04-01T02:58:36;6.03;;;2.20;;
22336;SDS011;14992;50.844;4.418;2023-04-01T03:01:05;6.93;;;2.60;;
22336;SDS011;14992;50.844;4.418;2023-04-01T03:03:35;5.18;;;2.58;;
22336;SDS011;14992;50.844;4.418;2023-04-01T03:06:04;7.18;;;2.70;;
22336;SDS011;14992;50.844;4.418;2023-04-01T03:08:34;6.63;;;2.38;;
22336;SDS011;14992;50.844;4.418;2023-04-01T03:11:04;5.30;;;2.83;;
22336;SDS011;14992;50.844;4.418;2023-04-01T03:13:35;5.80;;;2.33;;
22336;SDS011;14992;50.844;4.418;2023-04-01T03:16:04;4.40;;;2.45;;
22336;SDS011;14992;50.844;4.418;2023-04-01T03:18:34;6.10;;;2.63;;
22336;SDS011;14992;50.844;4.418;2023-04-01T03:21:13;7.38;;;2.67;;
22336;SDS011;14992;50.844;4.418;2023-04-01T03:23:43;6.10;;;3.17;;
22336;SDS011;14992;50.844;4.418;2023-04-01T03:26:13;5.90;;;2.72;;
22336;SDS011;14992;50.844;4.418;2023-04-01T03:28:42;5.68;;;3.30;;
22336;SDS011;14992;50.844;4.418;2023-04-01T03:31:12;6.65;;;3.10;;
22336;SDS011;14992;50.844;4.418;2023-04-01T03:33:48;8.38;;;3.78;;
22336;SDS011;14992;50.844;4.418;2023-04-01T03:36:17;9.77;;;3.65;;
22336;SDS011;14992;50.844;4.418;2023-04-01T03:38:46;10.98;;;3.65;;
22336;SDS011;14992;50.844;4.418;2023-04-01T03:41:23;7.30;;;4.28;;
22336;SDS011;14992;50.844;4.418;2023-04-01T03:43:52;10.32;;;3.42;;
22336;SDS011;14992;50.844;4.418;2023-04-01T03:46:21;6.78;;;3.35;;
22336;SDS011;14992;50.844;4.418;2023-04-01T03:48:51;9.52;;;3.88;;
22336;SDS011;14992;50.844;4.418;2023-04-01T03:51:20;11.65;;;3.78;;
22336;SDS011;14992;50.844;4.418;2023-04-01T03:53:49;9.77;;;4.13;;
22336;SDS011;14992;50.844;4.418;2023-04-01T03:56:18;13.60;;;5.55;;
22336;SDS011;14992;50.844;4.418;2023-04-01T03:58:48;15.25;;;4.82;;
22336;SDS011;14992;50.844;4.418;2023-04-01T04:01:18;10.25;;;3.90;;
22336;SDS011;14992;50.844;4.418;2023-04-01T04:03:50;12.40;;;4.53;;
22336;SDS011;14992;50.844;4.418;2023-04-01T04:06:20;7.72;;;3.75;;
22336;SDS011;14992;50.844;4.418;2023-04-01T04:08:51;9.50;;;4.47;;
22336;SDS011;14992;50.844;4.418;2023-04-01T04:11:20;7.03;;;3.80;;
22336;SDS011;14992;50.844;4.418;2023-04-01T04:13:53;8.70;;;3.97;;
22336;SDS011;14992;50.844;4.418;2023-04-01T04:16:24;10.02;;;4.05;;
22336;SDS011;14992;50.844;4.418;2023-04-01T04:18:57;9.82;;;3.38;;
22336;SDS011;14992;50.844;4.418;2023-04-01T04:21:27;8.05;;;3.55;;
22336;SDS011;14992;50.844;4.418;2023-04-01T04:23:56;11.10;;;4.00;;
22336;SDS011;14992;50.844;4.418;2023-04-01T04:26:28;9.27;;;3.58;;
22336;SDS011;14992;50.844;4.418;2023-04-01T04:29:00;8.20;;;3.80;;
22336;SDS011;14992;50.844;4.418;2023-04-01T04:31:30;5.38;;;3.17;;
22336;SDS011;14992;50.844;4.418;2023-04-01T04:34:00;7.30;;;3.72;;
22336;SDS011;14992;50.844;4.418;2023-04-01T04:36:33;6.40;;;3.03;;
22336;SDS011;14992;50.844;4.418;2023-04-01T04:39:02;4.25;;;2.90;;
22336;SDS011;14992;50.844;4.418;2023-04-01T04:41:33;7.55;;;3.25;;
22336;SDS011;14992;50.844;4.418;2023-04-01T04:44:06;8.90;;;3.10;;
22336;SDS011;14992;50.844;4.418;2023-04-01T04:46:35;5.43;;;2.42;;
22336;SDS011;14992;50.844;4.418;2023-04-01T04:49:13;5.00;;;2.03;;
22336;SDS011;14992;50.844;4.418;2023-04-01T04:51:42;6.30;;;2.60;;
22336;SDS011;14992;50.844;4.418;2023-04-01T04:54:14;3.45;;;2.20;;
22336;SDS011;14992;50.844;4.418;2023-04-01T04:56:56;4.38;;;2.30;;
22336;SDS011;14992;50.844;4.418;2023-04-01T04:59:29;5.47;;;2.28;;
22336;SDS011;14992;50.844;4.418;2023-04-01T05:02:12;3.63;;;2.15;;
22336;SDS011;14992;50.844;4.418;2023-04-01T05:04:41;4.93;;;2.28;;
22336;SDS011;14992;50.844;4.418;2023-04-01T05:07:10;4.32;;;2.72;;
22336;SDS011;14992;50.844;4.418;2023-04-01T05:09:39;6.60;;;2.28;;
22336;SDS011;14992;50.844;4.418;2023-04-01T05:12:09;4.30;;;2.50;;
22336;SDS011;14992;50.844;4.418;2023-04-01T05:14:59;4.20;;;2.60;;
22336;SDS011;14992;50.844;4.418;2023-04-01T05:17:28;3.60;;;2.22;;
22336;SDS011;14992;50.844;4.418;2023-04-01T05:19:57;4.05;;;2.38;;
22336;SDS011;14992;50.844;4.418;2023-04-01T05:22:27;5.75;;;2.70;;
22336;SDS011;14992;50.844;4.418;2023-04-01T05:24:56;6.07;;;2.58;;
22336;SDS011;14992;50.844;4.418;2023-04-01T05:27:25;4.07;;;1.90;;
22336;SDS011;14992;50.844;4.418;2023-04-01T05:29:54;6.93;;;2.63;;
22336;SDS011;14992;50.844;4.418;2023-04-01T05:32:41;3.90;;;2.40;;
22336;SDS011;14992;50.844;4.418;2023-04-01T05:35:11;5.30;;;2.72;;
22336;SDS011;14992;50.844;4.418;2023-04-01T05:37:40;6.28;;;3.60;;
22336;SDS011;14992;50.844;4.418;2023-04-01T05:40:09;7.47;;;3.22;;
22336;SDS011;14992;50.844;4.418;2023-04-01T05:42:38;4.97;;;2.72;;
22336;SDS011;14992;50.844;4.418;2023-04-01T05:45:07;6.22;;;3.45;;
22336;SDS011;14992;50.844;4.418;2023-04-01T05:47:58;9.88;;;3.88;;
22336;SDS011;14992;50.844;4.418;2023-04-01T05:50:31;9.32;;;4.38;;
22336;SDS011;14992;50.844;4.418;2023-04-01T05:53:01;7.88;;;3.58;;
22336;SDS011;14992;50.844;4.418;2023-04-01T05:55:30;8.90;;;3.95;;
22336;SDS011;14992;50.844;4.418;2023-04-01T05:57:59;9.45;;;4.03;;
22336;SDS011;14992;50.844;4.418;2023-04-01T06:00:29;9.38;;;3.78;;
22336;SDS011;14992;50.844;4.418;2023-04-01T06:03:00;6.93;;;4.07;;
22336;SDS011;14992;50.844;4.418;2023-04-01T06:05:30;10.68;;;4.25;;
22336;SDS011;14992;50.844;4.418;2023-04-01T06:08:09;9.18;;;4.50;;
22336;SDS011;14992;50.844;4.418;2023-04-01T06:10:44;8.05;;;4.90;;
22336;SDS011;14992;50.844;4.418;2023-04-01T06:13:26;12.13;;;5.45;;
22336;SDS011;14992;50.844;4.418;2023-04-01T06:16:07;8.50;;;4.13;;
22336;SDS011;14992;50.844;4.418;2023-04-01T06:19:01;7.30;;;4.57;;
22336;SDS011;14992;50.844;4.418;2023-04-01T06:24:53;8.05;;;4.22;;
22336;SDS011;14992;50.844;4.418;2023-04-01T06:27:38;8.95;;;4.32;;
22336;SDS011;14992;50.844;4.418;2023-04-01T06:30:24;8.75;;;4.32;;
22336;SDS011;14992;50.844;4.418;2023-04-01T06:33:08;9.52;;;5.45;;
22336;SDS011;14992;50.844;4.418;2023-04-01T06:36:01;8.38;;;4.20;;
22336;SDS011;14992;50.844;4.418;2023-04-01T06:38:50;9.48;;;4.15;;
22336;SDS011;14992;50.844;4.418;2023-04-01T06:41:45;7.82;;;3.95;;
22336;SDS011;14992;50.844;4.418;2023-04-01T06:44:37;7.75;;;4.25;;
22336;SDS011;14992;50.844;4.418;2023-04-01T06:47:36;9.25;;;4.28;;
22336;SDS011;14992;50.844;4.418;2023-04-01T06:50:34;7.72;;;4.35;;
22336;SDS011;14992;50.844;4.418;2023-04-01T06:53:31;10.60;;;4.63;;
22336;SDS011;14992;50.844;4.418;2023-04-01T06:59:08;9.20;;;3.92;;
22336;SDS011;14992;50.844;4.418;2023-04-01T07:01:41;8.50;;;4.03;;
22336;SDS011;14992;50.844;4.418;2023-04-01T07:04:14;8.90;;;4.68;;
22336;SDS011;14992;50.844;4.418;2023-04-01T07:06:48;7.75;;;4.10;;
22336;SDS011;14992;50.844;4.418;2023-04-01T07:09:24;7.28;;;3.15;;
22336;SDS011;14992;50.844;4.418;2023-04-01T07:12:28;5.88;;;3.58;;
22336;SDS011;14992;50.844;4.418;2023-04-01T07:15:35;8.63;;;4.03;;
22336;SDS011;14992;50.844;4.418;2023-04-01T07:18:10;5.85;;;3.00;;
22336;SDS011;14992;50.844;4.418;2023-04-01T07:20:44;4.95;;;2.75;;
22336;SDS011;14992;50.844;4.418;2023-04-01T07:23:15;3.95;;;2.50;;
22336;SDS011;14992;50.844;4.418;2023-04-01T07:26:06;6.53;;;3.15;;
22336;SDS011;14992;50.844;4.418;2023-04-01T07:29:09;3.97;;;2.75;;
22336;SDS011;14992;50.844;4.418;2023-04-01T07:31:46;5.38;;;2.78;;
22336;SDS011;14992;50.844;4.418;2023-04-01T07:34:28;3.33;;;2.20;;
22336;SDS011;14992;50.844;4.418;2023-04-01T07:39:37;3.47;;;2.10;;
22336;SDS011;14992;50.844;4.418;2023-04-01T07:42:26;4.43;;;2.78;;
22336;SDS011;14992;50.844;4.418;2023-04-01T07:45:04;4.85;;;2.30;;
22336;SDS011;14992;50.844;4.418;2023-04-01T07:47:45;2.90;;;1.90;;
22336;SDS011;14992;50.844;4.418;2023-04-01T07:50:31;3.60;;;2.38;;
22336;SDS011;14992;50.844;4.418;2023-04-01T07:55:41;3.00;;;1.73;;
22336;SDS011;14992;50.844;4.418;2023-04-01T07:58:17;2.85;;;1.77;;
22336;SDS011;14992;50.844;4.418;2023-04-01T08:00:56;3.28;;;1.85;;
22336;SDS011;14992;50.844;4.418;2023-04-01T08:03:43;2.58;;;1.27;;
22336;SDS011;14992;50.844;4.418;2023-04-01T08:06:27;1.38;;;0.98;;
22336;SDS011;14992;50.844;4.418;2023-04-01T08:09:02;1.40;;;0.95;;
22336;SDS011;14992;50.844;4.418;2023-04-01T08:12:13;1.90;;;1.30;;
22336;SDS011;14992;50.844;4.418;2023-04-01T08:15:15;1.70;;;1.10;;
22336;SDS011;14992;50.844;4.418;2023-04-01T08:17:55;2.33;;;1.30;;
22336;SDS011;14992;50.844;4.418;2023-04-01T08:20:33;1.63;;;1.10;;
22336;SDS011;14992;50.844;4.418;2023-04-01T08:23:07;1.33;;;1.15;;
22336;SDS011;14992;50.844;4.418;2023-04-01T08:25:44;1.80;;;1.05;;
22336;SDS011;14992;50.844;4.418;2023-04-01T08:28:20;1.75;;;1.35;;
22336;SDS011;14992;50.844;4.418;2023-04-01T08:30:56;2.33;;;0.93;;
22336;SDS011;14992;50.844;4.418;2023-04-01T08:33:30;2.20;;;0.88;;
22336;SDS011;14992;50.844;4.418;2023-04-01T08:36:05;3.10;;;1.38;;
22336;SDS011;14992;50.844;4.418;2023-04-01T08:38:38;1.70;;;1.20;;
22336;SDS011;14992;50.844;4.418;2023-04-01T08:41:25;2.25;;;1.17;;
22336;SDS011;14992;50.844;4.418;2023-04-01T08:51:10;2.58;;;1.48;;
22336;SDS011;14992;50.844;4.418;2023-04-01T08:53:51;1.65;;;1.30;;
22336;SDS011;14992;50.844;4.418;2023-04-01T08:56:33;1.77;;;1.10;;
22336;SDS011;14992;50.844;4.418;2023-04-01T08:59:21;1.75;;;1.10;;
22336;SDS011;14992;50.844;4.418;2023-04-01T09:05:35;0.80;;;0.70;;
22336;SDS011;14992;50.844;4.418;2023-04-01T09:08:33;1.50;;;1.00;;
22336;SDS011;14992;50.844;4.418;2023-04-01T09:11:16;1.38;;;0.93;;
22336;SDS011;14992;50.844;4.418;2023-04-01T09:17:30;1.75;;;0.80;;
22336;SDS011;14992;50.844;4.418;2023-04-01T09:23:29;1.95;;;1.15;;
22336;SDS011;14992;50.844;4.418;2023-04-01T09:26:21;2.28;;;1.75;;
22336;SDS011;14992;50.844;4.418;2023-04-01T09:29:05;4.45;;;2.60;;
22336;SDS011;14992;50.844;4.418;2023-04-01T09:31:54;3.03;;;1.60;;
22336;SDS011;14992;50.844;4.418;2023-04-01T09:34:51;3.63;;;1.63;;
22336;SDS011;14992;50.844;4.418;2023-04-01T09:37:31;3.38;;;1.83;;
22336;SDS011;14992;50.844;4.418;2023-04-01T09:40:17;1.77;;;1.52;;
22336;SDS011;14992;50.844;4.418;2023-04-01T09:43:03;3.75;;;1.95;;
22336;SDS011;14992;50.844;4.418;2023-04-01T09:45:47;3.40;;;1.65;;
22336;SDS011;14992;50.844;4.418;2023-04-01T09:48:31;3.63;;;2.22;;
22336;SDS011;14992;50.844;4.418;2023-04-01T09:51:31;4.68;;;2.47;;
22336;SDS011;14992;50.844;4.418;2023-04-01T09:54:15;2.55;;;1.80;;
22336;SDS011;14992;50.844;4.418;2023-04-01T10:06:56;3.10;;;2.35;;
22336;SDS011;14992;50.844;4.418;2023-04-01T10:10:04;2.42;;;1.80;;
22336;SDS011;14992;50.844;4.418;2023-04-01T10:13:00;2.22;;;1.45;;
22336;SDS011;14992;50.844;4.418;2023-04-01T10:19:25;2.38;;;1.67;;
22336;SDS011;14992;50.844;4.418;2023-04-01T10:22:56;1.80;;;1.30;;
22336;SDS011;14992;50.844;4.418;2023-04-01T10:44:29;3.47;;;2.20;;
22336;SDS011;14992;50.844;4.418;2023-04-01T10:47:39;2.00;;;1.65;;
22336;SDS011;14992;50.844;4.418;2023-04-01T10:50:45;3.50;;;1.40;;
22336;SDS011;14992;50.844;4.418;2023-04-01T10:56:33;2.10;;;0.88;;
22336;SDS011;14992;50.844;4.418;2023-04-01T11:06:27;2.95;;;1.35;;
22336;SDS011;14992;50.844;4.418;2023-04-01T11:12:43;1.48;;;1.33;;
22336;SDS011;14992;50.844;4.418;2023-04-01T11:15:40;1.80;;;1.20;;
22336;SDS011;14992;50.844;4.418;2023-04-01T11:21:56;1.42;;;1.10;;
22336;SDS011;14992;50.844;4.418;2023-04-01T11:28:18;1.88;;;1.40;;
22336;SDS011;14992;50.844;4.418;2023-04-01T11:31:11;2.85;;;1.88;;
22336;SDS011;14992;50.844;4.418;2023-04-01T11:34:13;2.85;;;1.73;;
22336;SDS011;14992;50.844;4.418;2023-04-01T11:36:55;3.75;;;1.83;;
22336;SDS011;14992;50.844;4.418;2023-04-01T11:39:38;5.85;;;3.30;;
22336;SDS011;14992;50.844;4.418;2023-04-01T11:42:53;3.65;;;2.22;;
22336;SDS011;14992;50.844;4.418;2023-04-01T11:46:02;2.92;;;2.00;;
22336;SDS011;14992;50.844;4.418;2023-04-01T11:48:40;2.00;;;1.50;;
22336;SDS011;14992;50.844;4.418;2023-04-01T11:51:24;3.38;;;1.95;;
22336;SDS011;14992;50.844;4.418;2023-04-01T11:54:22;2.63;;;1.50;;
22336;SDS011;14992;50.844;4.418;2023-04-01T11:57:06;1.85;;;1.50;;
22336;SDS011;14992;50.844;4.418;2023-04-01T12:03:15;2.22;;;1.33;;
22336;SDS011;14992;50.844;4.418;2023-04-01T12:05:58;1.33;;;1.15;;
22336;SDS011;14992;50.844;4.418;2023-04-01T12:08:36;1.77;;;1.58;;
22336;SDS011;14992;50.844;4.418;2023-04-01T12:11:23;4.35;;;2.88;;
22336;SDS011;14992;50.844;4.418;2023-04-01T12:13:59;2.60;;;1.48;;
22336;SDS011;14992;50.844;4.418;2023-04-01T12:16:45;2.05;;;1.40;;
22336;SDS011;14992;50.844;4.418;2023-04-01T12:19:23;2.38;;;1.20;;
22336;SDS011;14992;50.844;4.418;2023-04-01T12:22:07;1.83;;;1.20;;
22336;SDS011;14992;50.844;4.418;2023-04-01T12:24:49;1.88;;;1.00;;
22336;SDS011;14992;50.844;4.418;2023-04-01T12:27:32;1.83;;;1.40;;
22336;SDS011;14992;50.844;4.418;2023-04-01T12:30:17;2.53;;;1.55;;
22336;SDS011;14992;50.844;4.418;2023-04-01T12:33:00;3.28;;;1.90;;
22336;SDS011;14992;50.844;4.418;2023-04-01T12:35:45;1.98;;;1.77;;
22336;SDS011;14992;50.844;4.418;2023-04-01T12:38:27;4.00;;;2.13;;
22336;SDS011;14992;50.844;4.418;2023-04-01T12:41:05;2.35;;;1.60;;
22336;SDS011;14992;50.844;4.418;2023-04-01T12:43:48;3.15;;;1.77;;
22336;SDS011;14992;50.844;4.418;2023-04-01T12:46:45;4.13;;;2.35;;
22336;SDS011;14992;50.844;4.418;2023-04-01T12:49:24;5.45;;;3.63;;
22336;SDS011;14992;50.844;4.418;2023-04-01T12:52:15;2.28;;;1.58;;
22336;SDS011;14992;50.844;4.418;2023-04-01T12:55:02;1.60;;;1.33;;
22336;SDS011;14992;50.844;4.418;2023-04-01T13:01:02;2.25;;;2.05;;
22336;SDS011;14992;50.844;4.418;2023-04-01T13:04:05;7.70;;;3.20;;
22336;SDS011;14992;50.844;4.418;2023-04-01T13:07:01;2.30;;;2.00;;
22336;SDS011;14992;50.844;4.418;2023-04-01T13:09:52;3.58;;;2.00;;
22336;SDS011;14992;50.844;4.418;2023-04-01T13:12:36;6.57;;;2.70;;
22336;SDS011;14992;50.844;4.418;2023-04-01T13:15:20;3.80;;;2.22;;
22336;SDS011;14992;50.844;4.418;2023-04-01T13:21:04;2.25;;;1.73;;
22336;SDS011;14992;50.844;4.418;2023-04-01T13:23:44;2.22;;;1.70;;
22336;SDS011;14992;50.844;4.418;2023-04-01T13:26:24;3.38;;;2.05;;
22336;SDS011;14992;50.844;4.418;2023-04-01T13:28:59;4.00;;;2.42;;
22336;SDS011;14992;50.844;4.418;2023-04-01T13:31:38;3.72;;;2.65;;
22336;SDS011;14992;50.844;4.418;2023-04-01T13:34:26;9.52;;;3.35;;
22336;SDS011;14992;50.844;4.418;2023-04-01T13:37:09;2.47;;;1.58;;
22336;SDS011;14992;50.844;4.418;2023-04-01T13:39:52;1.95;;;1.65;;
22336;SDS011;14992;50.844;4.418;2023-04-01T13:42:34;1.38;;;1.27;;
22336;SDS011;14992;50.844;4.418;2023-04-01T13:45:13;1.60;;;1.42;;
22336;SDS011;14992;50.844;4.418;2023-04-01T13:47:59;2.42;;;1.27;;
22336;SDS011;14992;50.844;4.418;2023-04-01T13:50:58;1.85;;;1.20;;
22336;SDS011;14992;50.844;4.418;2023-04-01T13:53:55;1.52;;;0.88;;
22336;SDS011;14992;50.844;4.418;2023-04-01T13:56:46;2.00;;;1.02;;
22336;SDS011;14992;50.844;4.418;2023-04-01T14:02:19;2.95;;;0.90;;
22336;SDS011;14992;50.844;4.418;2023-04-01T14:05:09;3.03;;;2.00;;
22336;SDS011;14992;50.844;4.418;2023-04-01T14:08:13;1.70;;;1.30;;
22336;SDS011;14992;50.844;4.418;2023-04-01T14:10:50;3.47;;;1.38;;
22336;SDS011;14992;50.844;4.418;2023-04-01T14:13:27;1.52;;;1.13;;
22336;SDS011;14992;50.844;4.418;2023-04-01T14:16:10;1.67;;;1.00;;
22336;SDS011;14992;50.844;4.418;2023-04-01T14:18:53;2.70;;;1.10;;
22336;SDS011;14992;50.844;4.418;2023-04-01T14:21:41;1.73;;;1.20;;
22336;SDS011;14992;50.844;4.418;2023-04-01T14:24:20;1.52;;;1.05;;
22336;SDS011;14992;50.844;4.418;2023-04-01T14:27:16;1.88;;;1.42;;
22336;SDS011;14992;50.844;4.418;2023-04-01T14:29:58;2.28;;;1.20;;
22336;SDS011;14992;50.844;4.418;2023-04-01T14:32:39;2.45;;;1.45;;
22336;SDS011;14992;50.844;4.418;2023-04-01T14:35:19;1.50;;;1.10;;
22336;SDS011;14992;50.844;4.418;2023-04-01T14:37:58;0.90;;;0.90;;
22336;SDS011;14992;50.844;4.418;2023-04-01T14:40:53;2.13;;;1.92;;
22336;SDS011;14992;50.844;4.418;2023-04-01T14:43:42;3.78;;;1.42;;
22336;SDS011;14992;50.844;4.418;2023-04-01T14:46:22;3.50;;;2.40;;
22336;SDS011;14992;50.844;4.418;2023-04-01T14:49:01;4.95;;;2.60;;
22336;SDS011;14992;50.844;4.418;2023-04-01T14:51:33;4.22;;;1.85;;
22336;SDS011;14992;50.844;4.418;2023-04-01T14:54:06;4.45;;;2.80;;
22336;SDS011;14992;50.844;4.418;2023-04-01T14:56:42;1.98;;;1.50;;
22336;SDS011;14992;50.844;4.418;2023-04-01T14:59:17;2.58;;;1.63;;
22336;SDS011;14992;50.844;4.418;2023-04-01T15:01:57;0.95;;;0.80;;
22336;SDS011;14992;50.844;4.418;2023-04-01T15:04:36;4.50;;;2.15;;
22336;SDS011;14992;50.844;4.418;2023-04-01T15:07:22;1.67;;;0.90;;
22336;SDS011;14992;50.844;4.418;2023-04-01T15:10:05;2.03;;;1.17;;
22336;SDS011;14992;50.844;4.418;2023-04-01T15:12:50;1.77;;;1.30;;
22336;SDS011;14992;50.844;4.418;2023-04-01T15:15:27;1.60;;;1.00;;
22336;SDS011;14992;50.844;4.418;2023-04-01T15:18:08;3.33;;;1.60;;
22336;SDS011;14992;50.844;4.418;2023-04-01T15:20:47;1.55;;;0.88;;
22336;SDS011;14992;50.844;4.418;2023-04-01T15:23:40;2.95;;;1.80;;
22336;SDS011;14992;50.844;4.418;2023-04-01T15:26:28;3.88;;;2.40;;
22336;SDS011;14992;50.844;4.418;2023-04-01T15:29:27;2.83;;;1.45;;
22336;SDS011;14992;50.844;4.418;2023-04-01T15:32:29;5.85;;;1.80;;
22336;SDS011;14992;50.844;4.418;2023-04-01T15:35:13;3.60;;;1.33;;
22336;SDS011;14992;50.844;4.418;2023-04-01T15:37:51;3.83;;;2.67;;
22336;SDS011;14992;50.844;4.418;2023-04-01T15:40:24;3.05;;;1.80;;
22336;SDS011;14992;50.844;4.418;2023-04-01T15:43:03;1.52;;;1.00;;
22336;SDS011;14992;50.844;4.418;2023-04-01T15:45:45;3.58;;;1.65;;
22336;SDS011;14992;50.844;4.418;2023-04-01T15:48:31;1.15;;;0.95;;
22336;SDS011;14992;50.844;4.418;2023-04-01T15:51:17;2.03;;;1.13;;
22336;SDS011;14992;50.844;4.418;2023-04-01T15:54:05;2.67;;;0.93;;
22336;SDS011;14992;50.844;4.418;2023-04-01T15:56:53;3.05;;;1.33;;
22336;SDS011;14992;50.844;4.418;2023-04-01T15:59:40;2.65;;;1.80;;
22336;SDS011;14992;50.844;4.418;2023-04-01T16:02:29;2.72;;;0.90;;
22336;SDS011;14992;50.844;4.418;2023-04-01T16:05:04;2.03;;;1.02;;
22336;SDS011;14992;50.844;4.418;2023-04-01T16:07:43;6.88;;;3.50;;
22336;SDS011;14992;50.844;4.418;2023-04-01T16:10:29;3.53;;;1.77;;
22336;SDS011;14992;50.844;4.418;2023-04-01T16:13:17;1.58;;;1.00;;
22336;SDS011;14992;50.844;4.418;2023-04-01T16:15:54;3.22;;;1.73;;
22336;SDS011;14992;50.844;4.418;2023-04-01T16:18:42;1.67;;;1.50;;
22336;SDS011;14992;50.844;4.418;2023-04-01T16:21:24;17.02;;;8.65;;
22336;SDS011;14992;50.844;4.418;2023-04-01T16:24:05;3.65;;;3.05;;
22336;SDS011;14992;50.844;4.418;2023-04-01T16:26:44;3.13;;;2.33;;
22336;SDS011;14992;50.844;4.418;2023-04-01T16:29:20;3.13;;;1.98;;
22336;SDS011;14992;50.844;4.418;2023-04-01T16:31:59;6.60;;;3.75;;
22336;SDS011;14992;50.844;4.418;2023-04-01T16:34:41;2.05;;;1.27;;
22336;SDS011;14992;50.844;4.418;2023-04-01T16:37:16;2.45;;;2.10;;
22336;SDS011;14992;50.844;4.418;2023-04-01T16:39:50;15.88;;;6.68;;
22336;SDS011;14992;50.844;4.418;2023-04-01T16:42:25;2.22;;;1.42;;
22336;SDS011;14992;50.844;4.418;2023-04-01T16:45:06;2.00;;;1.30;;
22336;SDS011;14992;50.844;4.418;2023-04-01T16:47:47;2.58;;;1.40;;
22336;SDS011;14992;50.844;4.418;2023-04-01T16:50:20;2.85;;;1.33;;
22336;SDS011;14992;50.844;4.418;2023-04-01T16:52:57;1.40;;;1.30;;
22336;SDS011;14992;50.844;4.418;2023-04-01T16:55:34;2.28;;;1.40;;
22336;SDS011;14992;50.844;4.418;2023-04-01T16:58:09;4.03;;;2.63;;
22336;SDS011;14992;50.844;4.418;2023-04-01T17:00:44;2.55;;;1.30;;
22336;SDS011;14992;50.844;4.418;2023-04-01T17:03:20;1.63;;;1.40;;
22336;SDS011;14992;50.844;4.418;2023-04-01T17:06:11;4.55;;;2.10;;
22336;SDS011;14992;50.844;4.418;2023-04-01T17:08:52;4.97;;;2.00;;
22336;SDS011;14992;50.844;4.418;2023-04-01T17:11:32;6.55;;;1.98;;
22336;SDS011;14992;50.844;4.418;2023-04-01T17:14:10;3.03;;;1.80;;
22336;SDS011;14992;50.844;4.418;2023-04-01T17:16:52;3.80;;;2.58;;
22336;SDS011;14992;50.844;4.418;2023-04-01T17:19:41;2.55;;;1.70;;
22336;SDS011;14992;50.844;4.418;2023-04-01T17:25:19;5.28;;;2.80;;
22336;SDS011;14992;50.844;4.418;2023-04-01T17:27:58;3.92;;;2.13;;
22336;SDS011;14992;50.844;4.418;2023-04-01T17:30:33;3.15;;;2.03;;
22336;SDS011;14992;50.844;4.418;2023-04-01T17:33:17;3.58;;;2.17;;
22336;SDS011;14992;50.844;4.418;2023-04-01T17:35:59;3.60;;;2.97;;
22336;SDS011;14992;50.844;4.418;2023-04-01T17:38:44;4.05;;;2.50;;
22336;SDS011;14992;50.844;4.418;2023-04-01T17:41:28;4.10;;;2.65;;
22336;SDS011;14992;50.844;4.418;2023-04-01T17:44:10;3.85;;;2.38;;